createdAt,value
2019-03-03T00:02:08.352Z,66.97
2019-03-03T00:04:40.013Z,66.83
2019-03-03T00:07:11.871Z,66.86
2019-03-03T00:09:43.542Z,67.17
2019-03-03T00:12:15.234Z,67.07
2019-03-03T00:14:46.905Z,67.06
2019-03-03T00:17:18.786Z,67.13
2019-03-03T00:19:50.449Z,67.16
2019-03-03T00:22:22.077Z,67.23
2019-03-03T00:24:53.835Z,67.23
2019-03-03T00:27:25.592Z,67.39
2019-03-03T00:29:57.435Z,67.51
2019-03-03T00:32:29.134Z,67.36
2019-03-03T00:35:00.732Z,67.35
2019-03-03T00:37:42.620Z,67.37
2019-03-03T00:40:31.786Z,67.16
2019-03-03T00:43:21.287Z,67.15
2019-03-03T00:46:09.371Z,67.03
2019-03-03T00:48:56.203Z,67.01
2019-03-03T00:51:42.041Z,67.23
2019-03-03T00:54:31.347Z,67.45
2019-03-03T00:57:20.468Z,67.44
2019-03-03T00:59:57.952Z,67.58
2019-03-03T01:02:47.100Z,67.22
2019-03-03T01:05:32.400Z,67.27
2019-03-03T01:08:22.919Z,66.77
2019-03-03T01:11:22.835Z,66.68
2019-03-03T01:14:02.674Z,66.92
2019-03-03T01:16:51.846Z,67.35
2019-03-03T01:19:34.724Z,67.41
2019-03-03T01:22:20.508Z,67.18
2019-03-03T01:25:00.099Z,67.24
2019-03-03T01:27:32.492Z,67.40
2019-03-03T01:30:04.338Z,67.81
2019-03-03T01:32:36.126Z,67.98
2019-03-03T01:35:08.491Z,68.12
2019-03-03T01:37:40.149Z,68.30
2019-03-03T01:40:11.770Z,68.00
2019-03-03T01:42:43.378Z,67.86
2019-03-03T01:45:15.941Z,67.99
2019-03-03T01:47:47.611Z,68.16
2019-03-03T01:50:19.207Z,68.35
2019-03-03T01:52:50.887Z,68.38
2019-03-03T01:55:22.502Z,67.84
2019-03-03T01:57:54.119Z,68.00
2019-03-03T02:00:26.999Z,67.87
2019-03-03T02:02:58.808Z,68.24
2019-03-03T02:05:30.663Z,68.22
2019-03-03T02:08:02.600Z,67.85
2019-03-03T02:10:34.467Z,67.70
2019-03-03T02:13:06.088Z,67.91
2019-03-03T02:15:37.767Z,68.32
2019-03-03T02:18:09.450Z,67.88
2019-03-03T02:20:41.045Z,68.21
2019-03-03T02:23:13.809Z,68.22
2019-03-03T02:25:45.487Z,68.41
2019-03-03T02:28:17.177Z,68.35
2019-03-03T02:30:48.771Z,68.98
2019-03-03T02:33:20.433Z,67.87
2019-03-03T02:35:52.119Z,68.55
2019-03-03T02:38:23.738Z,68.70
2019-03-03T02:40:55.342Z,70.00
2019-03-03T02:43:27.037Z,70.22
2019-03-03T02:45:58.709Z,70.27
2019-03-03T02:48:30.653Z,70.24
2019-03-03T02:51:02.565Z,69.95
2019-03-03T02:53:34.487Z,69.66
2019-03-03T02:56:06.088Z,69.96
2019-03-03T02:58:37.840Z,69.94
2019-03-03T03:01:22.849Z,70.07
2019-03-03T03:03:54.538Z,69.85
2019-03-03T03:06:38.324Z,69.76
2019-03-03T03:09:18.573Z,69.55
2019-03-03T03:12:26.986Z,69.26
2019-03-03T03:15:28.566Z,69.32
2019-03-03T03:18:25.227Z,69.26
2019-03-03T03:21:01.551Z,69.56
2019-03-03T03:24:03.913Z,70.04
2019-03-03T03:27:00.352Z,70.36
2019-03-03T03:29:57.741Z,69.93
2019-03-03T03:32:43.651Z,69.98
2019-03-03T03:35:20.798Z,69.77
2019-03-03T03:38:26.472Z,69.39
2019-03-03T03:41:25.795Z,69.35
2019-03-03T03:44:31.534Z,69.55
2019-03-03T03:47:37.328Z,69.57
2019-03-03T03:50:26.584Z,69.67
2019-03-03T03:53:13.767Z,70.64
2019-03-03T03:56:04.368Z,71.24
2019-03-03T03:59:12.983Z,71.32
2019-03-03T04:02:04.797Z,70.98
2019-03-03T04:04:54.397Z,70.20
2019-03-03T04:07:51.191Z,70.47
2019-03-03T04:10:41.694Z,70.19
2019-03-03T04:13:32.115Z,70.05
2019-03-03T04:16:35.515Z,70.21
2019-03-03T04:19:16.660Z,70.84
2019-03-03T04:22:05.644Z,71.02
2019-03-03T04:24:55.020Z,71.01
2019-03-03T04:27:46.418Z,71.19
2019-03-03T04:30:36.948Z,71.15
2019-03-03T04:33:30.441Z,71.14
2019-03-03T04:36:11.031Z,70.89
2019-03-03T04:38:59.924Z,70.64
2019-03-03T04:41:59.736Z,70.80
2019-03-03T04:45:02.594Z,70.75
2019-03-03T04:47:44.422Z,70.28
2019-03-03T04:50:24.242Z,70.21
2019-03-03T04:53:29.697Z,70.56
2019-03-03T04:56:10.238Z,70.66
2019-03-03T04:58:52.097Z,70.51
2019-03-03T05:01:32.416Z,70.76
2019-03-03T05:04:41.877Z,70.82
2019-03-03T05:07:35.264Z,70.84
2019-03-03T05:10:28.665Z,71.37
2019-03-03T05:13:24.923Z,71.40
2019-03-03T05:16:13.819Z,71.01
2019-03-03T05:19:13.164Z,70.83
2019-03-03T05:21:44.764Z,70.85
2019-03-03T05:24:16.362Z,70.88
2019-03-03T05:26:48.031Z,70.87
2019-03-03T05:29:19.658Z,70.98
2019-03-03T05:31:51.272Z,70.97
2019-03-03T05:34:22.950Z,70.79
2019-03-03T05:36:54.558Z,70.89
2019-03-03T05:39:26.180Z,70.89
2019-03-03T05:41:57.774Z,70.94
2019-03-03T05:44:29.399Z,70.72
2019-03-03T05:47:01.333Z,70.69
2019-03-03T05:49:34.464Z,70.47
2019-03-03T05:52:06.366Z,70.71
2019-03-03T05:54:38.535Z,70.71
2019-03-03T05:57:10.133Z,70.88
2019-03-03T05:59:41.747Z,71.01
2019-03-03T06:02:13.354Z,70.88
2019-03-03T06:04:44.979Z,70.78
2019-03-03T06:07:16.577Z,70.78
2019-03-03T06:09:48.189Z,71.37
2019-03-03T06:12:19.909Z,71.53
2019-03-03T06:14:51.529Z,71.78
2019-03-03T06:17:23.124Z,72.18
2019-03-03T06:19:54.748Z,72.36
2019-03-03T06:22:26.336Z,72.50
2019-03-03T06:24:58.035Z,72.41
2019-03-03T06:27:30.317Z,72.54
2019-03-03T06:30:02.002Z,72.42
2019-03-03T06:32:33.715Z,73.60
2019-03-03T06:35:06.036Z,74.58
2019-03-03T06:37:37.648Z,76.01
2019-03-03T06:40:09.858Z,76.27
2019-03-03T06:42:41.451Z,76.70
2019-03-03T06:45:13.229Z,77.39
2019-03-03T06:47:44.810Z,77.74
2019-03-03T06:50:16.425Z,77.72
2019-03-03T06:52:48.154Z,77.88
2019-03-03T06:55:19.840Z,77.87
2019-03-03T06:57:52.045Z,78.03
2019-03-03T07:00:23.662Z,77.62
2019-03-03T07:02:55.326Z,77.59
2019-03-03T07:05:26.942Z,78.09
2019-03-03T07:07:58.633Z,78.14
2019-03-03T07:10:30.297Z,78.28
2019-03-03T07:13:01.916Z,78.43
2019-03-03T07:15:33.737Z,78.64
2019-03-03T07:18:06.169Z,78.42
2019-03-03T07:20:37.790Z,78.72
2019-03-03T07:23:09.469Z,78.96
2019-03-03T07:25:41.169Z,78.75
2019-03-03T07:28:12.770Z,78.86
2019-03-03T07:30:44.380Z,79.05
2019-03-03T07:33:28.617Z,78.92
2019-03-03T07:36:00.428Z,78.87
2019-03-03T07:38:32.099Z,78.96
2019-03-03T07:41:03.763Z,78.93
2019-03-03T07:43:35.604Z,78.60
2019-03-03T07:46:07.546Z,78.62
2019-03-03T07:48:39.195Z,78.67
2019-03-03T07:51:10.880Z,79.04
2019-03-03T07:53:42.500Z,79.07
2019-03-03T07:56:14.143Z,78.79
2019-03-03T07:58:45.804Z,78.71
2019-03-03T08:01:17.428Z,78.58
2019-03-03T08:03:49.026Z,78.51
2019-03-03T08:06:20.656Z,78.51
2019-03-03T08:08:52.439Z,78.56
2019-03-03T08:11:24.056Z,78.70
2019-03-03T08:13:56.583Z,78.50
2019-03-03T08:16:28.356Z,78.47
2019-03-03T08:19:00.019Z,78.32
2019-03-03T08:21:31.974Z,78.18
2019-03-03T08:24:03.754Z,78.16
2019-03-03T08:26:35.613Z,78.02
2019-03-03T08:29:07.523Z,78.01
2019-03-03T08:31:39.231Z,78.26
2019-03-03T08:34:10.903Z,78.06
2019-03-03T08:36:42.612Z,77.86
2019-03-03T08:39:14.286Z,78.10
2019-03-03T08:41:49.598Z,77.50
2019-03-03T08:44:25.928Z,77.28
2019-03-03T08:47:19.447Z,77.10
2019-03-03T08:50:11.921Z,76.95
2019-03-03T08:53:17.698Z,76.55
2019-03-03T08:56:13.922Z,76.23
2019-03-03T08:59:00.594Z,76.15
2019-03-03T09:01:44.481Z,75.58
2019-03-03T09:04:43.923Z,75.06
2019-03-03T09:07:32.951Z,74.87
2019-03-03T09:10:26.791Z,74.97
2019-03-03T09:13:17.689Z,74.23
2019-03-03T09:16:14.488Z,73.95
2019-03-03T09:19:11.084Z,74.11
2019-03-03T09:22:07.424Z,74.08
2019-03-03T09:24:58.030Z,73.75
2019-03-03T09:27:42.705Z,73.72
2019-03-03T09:30:33.239Z,73.79
2019-03-03T09:33:36.865Z,73.21
2019-03-03T09:36:30.262Z,72.71
2019-03-03T09:39:35.643Z,72.42
2019-03-03T09:42:13.950Z,71.92
2019-03-03T09:45:16.299Z,71.27
2019-03-03T09:48:05.379Z,71.40
2019-03-03T09:50:54.312Z,70.92
2019-03-03T09:53:43.186Z,70.14
2019-03-03T09:56:36.712Z,69.24
2019-03-03T09:59:25.826Z,68.99
2019-03-03T10:02:23.406Z,67.72
2019-03-03T10:05:12.489Z,67.16
2019-03-03T10:08:01.633Z,66.85
2019-03-03T10:10:40.707Z,66.24
2019-03-03T10:13:29.868Z,66.78
2019-03-03T10:16:09.057Z,66.08
2019-03-03T10:19:06.947Z,65.88
2019-03-03T10:21:38.375Z,65.75
2019-03-03T10:24:19.361Z,65.96
2019-03-03T10:27:21.898Z,65.86
2019-03-03T10:30:10.609Z,65.63
2019-03-03T10:33:00.990Z,66.08
2019-03-03T10:35:49.974Z,65.63
2019-03-03T10:38:37.490Z,65.87
2019-03-03T10:41:27.405Z,65.58
2019-03-03T10:44:05.465Z,65.34
2019-03-03T10:47:14.286Z,65.18
2019-03-03T10:50:07.877Z,65.40
2019-03-03T10:52:48.199Z,65.20
2019-03-03T10:55:45.546Z,65.00
2019-03-03T10:58:28.036Z,64.74
2019-03-03T11:01:04.384Z,64.54
2019-03-03T11:04:10.070Z,64.59
2019-03-03T11:07:06.486Z,63.93
2019-03-03T11:10:03.108Z,63.64
2019-03-03T11:12:51.055Z,63.26
2019-03-03T11:15:41.160Z,62.78
2019-03-03T11:18:34.788Z,62.50
2019-03-03T11:21:30.823Z,62.05
2019-03-03T11:24:27.191Z,61.59
2019-03-03T11:27:16.353Z,61.59
2019-03-03T11:30:09.946Z,61.01
2019-03-03T11:33:05.422Z,60.39
2019-03-03T11:36:11.660Z,60.29
2019-03-03T11:39:02.230Z,60.12
2019-03-03T11:41:47.552Z,59.84
2019-03-03T11:44:38.137Z,59.70
2019-03-03T11:47:24.873Z,59.21
2019-03-03T11:50:17.285Z,59.38
2019-03-03T11:53:02.180Z,59.38
2019-03-03T11:55:50.024Z,64.30
2019-03-03T11:58:39.162Z,62.74
2019-03-03T12:01:23.172Z,62.94
2019-03-03T12:04:12.341Z,61.57
2019-03-03T12:07:02.923Z,61.81
2019-03-03T12:09:52.078Z,61.53
2019-03-03T12:12:54.464Z,61.25
2019-03-03T12:15:45.576Z,61.02
2019-03-03T12:18:42.959Z,60.88
2019-03-03T12:21:30.206Z,60.40
2019-03-03T12:24:20.828Z,59.93
2019-03-03T12:27:14.418Z,59.93
2019-03-03T12:30:10.801Z,59.79
2019-03-03T12:33:01.775Z,59.55
2019-03-03T12:35:45.430Z,59.42
2019-03-03T12:38:28.871Z,59.34
2019-03-03T12:41:31.444Z,58.91
2019-03-03T12:44:20.667Z,59.08
2019-03-03T12:47:00.422Z,59.42
2019-03-03T12:49:58.552Z,59.47
2019-03-03T12:52:39.284Z,59.42
2019-03-03T12:55:29.301Z,59.69
2019-03-03T12:58:34.801Z,59.54
2019-03-03T13:01:28.228Z,59.38
2019-03-03T13:04:33.909Z,59.37
2019-03-03T13:07:29.692Z,59.90
2019-03-03T13:10:18.823Z,60.55
2019-03-03T13:13:09.425Z,61.33
2019-03-03T13:15:59.468Z,61.72
2019-03-03T13:18:59.870Z,62.23
2019-03-03T13:22:00.972Z,62.77
2019-03-03T13:24:54.650Z,63.21
2019-03-03T13:27:54.396Z,63.52
2019-03-03T13:30:46.056Z,64.54
2019-03-03T13:33:40.978Z,65.74
2019-03-03T13:36:33.685Z,67.12
2019-03-03T13:39:24.720Z,68.45
2019-03-03T13:42:27.751Z,69.46
2019-03-03T13:44:59.777Z,70.76
2019-03-03T13:47:32.023Z,72.70
2019-03-03T13:50:04.037Z,74.43
2019-03-03T13:52:35.778Z,74.11
2019-03-03T13:55:08.590Z,75.04
2019-03-03T13:57:40.337Z,76.26
2019-03-03T14:00:15.363Z,76.03
2019-03-03T14:02:48.178Z,76.18
2019-03-03T14:05:21.281Z,76.48
2019-03-03T14:07:54.320Z,76.33
2019-03-03T14:10:28.139Z,75.98
2019-03-03T14:13:02.035Z,76.22
2019-03-03T14:15:35.993Z,76.39
2019-03-03T14:18:09.098Z,77.30
2019-03-03T14:20:42.046Z,78.28
2019-03-03T14:23:14.586Z,78.90
2019-03-03T14:25:47.002Z,80.62
2019-03-03T14:28:19.131Z,79.37
2019-03-03T14:30:51.140Z,80.20
2019-03-03T14:33:22.727Z,79.76
2019-03-03T14:35:55.559Z,80.04
2019-03-03T14:38:29.459Z,79.85
2019-03-03T14:41:01.924Z,79.55
2019-03-03T14:43:33.766Z,78.31
2019-03-03T14:46:05.883Z,79.31
2019-03-03T14:48:37.832Z,79.41
2019-03-03T14:51:09.461Z,78.63
2019-03-03T14:53:41.291Z,79.13
2019-03-03T14:56:13.258Z,78.88
2019-03-03T14:58:44.977Z,79.47
2019-03-03T15:01:16.636Z,79.90
2019-03-03T15:03:48.473Z,79.33
2019-03-03T15:06:24.389Z,80.41
2019-03-03T15:08:53.820Z,80.19
2019-03-03T15:11:25.674Z,80.57
2019-03-03T15:13:57.286Z,81.19
2019-03-03T15:16:30.092Z,82.35
2019-03-03T15:19:02.108Z,81.87
2019-03-03T15:21:35.498Z,82.34
2019-03-03T15:24:08.294Z,82.39
2019-03-03T15:26:40.353Z,82.04
2019-03-03T15:29:12.047Z,82.16
2019-03-03T15:31:43.798Z,82.43
2019-03-03T15:34:15.561Z,82.16
2019-03-03T15:36:47.240Z,82.31
2019-03-03T15:39:19.034Z,82.62
2019-03-03T15:41:50.866Z,81.99
2019-03-03T15:44:22.646Z,82.26
2019-03-03T15:46:54.367Z,82.10
2019-03-03T15:49:28.691Z,82.66
2019-03-03T15:52:00.514Z,82.50
2019-03-03T15:54:34.241Z,82.50
2019-03-03T15:57:06.462Z,82.36
2019-03-03T15:59:38.162Z,82.42
2019-03-03T16:02:10.241Z,82.27
2019-03-03T16:04:41.854Z,82.45
2019-03-03T16:07:13.468Z,82.28
2019-03-03T16:09:45.704Z,81.92
2019-03-03T16:12:17.457Z,82.46
2019-03-03T16:14:49.063Z,81.97
2019-03-03T16:17:20.700Z,82.14
2019-03-03T16:19:52.372Z,81.11
2019-03-03T16:22:23.980Z,81.49
2019-03-03T16:24:55.574Z,81.87
2019-03-03T16:27:27.180Z,81.72
2019-03-03T16:29:58.787Z,81.50
2019-03-03T16:32:30.398Z,81.53
2019-03-03T16:35:02.475Z,80.90
2019-03-03T16:37:34.353Z,81.54
2019-03-03T16:40:08.123Z,81.10
2019-03-03T16:42:39.816Z,81.13
2019-03-03T16:45:12.260Z,81.03
2019-03-03T16:47:43.938Z,80.45
2019-03-03T16:50:16.850Z,80.36
2019-03-03T16:52:49.530Z,80.31
2019-03-03T16:55:21.160Z,80.31
2019-03-03T16:57:52.843Z,79.76
2019-03-03T17:00:24.476Z,79.73
2019-03-03T17:02:56.174Z,79.61
2019-03-03T17:05:28.747Z,79.63
2019-03-03T17:08:00.438Z,79.20
2019-03-03T17:10:33.602Z,79.02
2019-03-03T17:13:05.397Z,78.76
2019-03-03T17:15:37.057Z,78.56
2019-03-03T17:18:08.657Z,78.60
2019-03-03T17:20:40.330Z,78.97
2019-03-03T17:23:11.999Z,78.66
2019-03-03T17:25:43.580Z,79.00
2019-03-03T17:28:15.248Z,78.76
2019-03-03T17:30:46.826Z,78.27
2019-03-03T17:33:18.538Z,78.51
2019-03-03T17:35:50.218Z,78.41
2019-03-03T17:38:21.808Z,79.25
2019-03-03T17:40:53.467Z,79.28
2019-03-03T17:43:25.080Z,79.55
2019-03-03T17:45:57.660Z,79.15
2019-03-03T17:48:29.355Z,79.25
2019-03-03T17:51:00.959Z,79.30
2019-03-03T17:53:32.661Z,79.82
2019-03-03T17:56:04.451Z,79.91
2019-03-03T17:58:36.276Z,80.43
2019-03-03T18:01:08.182Z,79.91
2019-03-03T18:03:39.870Z,80.20
2019-03-03T18:06:11.540Z,80.92
2019-03-03T18:08:43.157Z,80.74
2019-03-03T18:11:15.037Z,80.98
2019-03-03T18:13:46.653Z,81.12
2019-03-03T18:16:18.318Z,81.15
2019-03-03T18:18:50.010Z,81.04
2019-03-03T18:21:21.606Z,81.19
2019-03-03T18:23:53.233Z,81.29
2019-03-03T18:26:24.834Z,81.30
2019-03-03T18:28:56.470Z,81.27
2019-03-03T18:31:28.056Z,81.61
2019-03-03T18:34:00.733Z,81.43
2019-03-03T18:36:33.551Z,81.88
2019-03-03T18:39:07.082Z,82.16
2019-03-03T18:41:40.270Z,82.31
2019-03-03T18:44:11.959Z,81.93
2019-03-03T18:46:43.616Z,82.00
2019-03-03T18:49:15.310Z,81.73
2019-03-03T18:51:46.969Z,82.23
2019-03-03T18:54:18.577Z,82.00
2019-03-03T18:56:50.326Z,81.91
2019-03-03T18:59:21.938Z,81.99
2019-03-03T19:01:54.509Z,81.71
2019-03-03T19:04:26.144Z,82.32
2019-03-03T19:06:57.902Z,82.03
2019-03-03T19:09:29.589Z,82.29
2019-03-03T19:12:01.523Z,81.84
2019-03-03T19:14:33.403Z,81.98
2019-03-03T19:17:05.342Z,81.94
2019-03-03T19:19:36.958Z,81.96
2019-03-03T19:22:08.631Z,81.81
2019-03-03T19:24:40.251Z,81.17
